createdAt,value
2018-03-04T00:01:04.811Z,98.20
2018-03-04T00:03:32.458Z,98.10
2018-03-04T00:06:00.101Z,97.90
2018-03-04T00:08:27.751Z,98.40
2018-03-04T00:10:55.372Z,98.00
2018-03-04T00:13:23.030Z,98.00
2018-03-04T00:15:51.396Z,98.30
2018-03-04T00:18:19.029Z,98.10
2018-03-04T00:20:46.657Z,98.20
2018-03-04T00:23:14.299Z,98.40
2018-03-04T00:25:41.910Z,98.20
2018-03-04T00:28:09.516Z,98.30
2018-03-04T00:30:37.154Z,98.60
2018-03-04T00:33:05.516Z,98.50
2018-03-04T00:35:33.218Z,98.60
2018-03-04T00:38:01.580Z,98.20
2018-03-04T00:40:29.184Z,98.20
2018-03-04T00:42:56.815Z,97.90
2018-03-04T00:45:24.489Z,98.30
2018-03-04T00:47:52.105Z,98.30
2018-03-04T00:50:19.760Z,98.10
2018-03-04T00:52:47.390Z,98.20
2018-03-04T00:55:15.820Z,98.30
2018-03-04T00:57:43.414Z,98.30
2018-03-04T01:00:11.029Z,98.20
2018-03-04T01:02:38.859Z,98.60
2018-03-04T01:05:06.493Z,98.20
2018-03-04T01:07:34.158Z,98.20
2018-03-04T01:10:01.774Z,98.20
2018-03-04T01:12:30.161Z,98.50
2018-03-04T01:14:58.542Z,98.40
2018-03-04T01:17:26.956Z,98.80
2018-03-04T01:19:54.581Z,98.80
2018-03-04T01:22:22.230Z,98.40
2018-03-04T01:24:49.894Z,98.70
2018-03-04T01:27:17.495Z,98.80
2018-03-04T01:29:45.895Z,98.70
2018-03-04T01:32:13.493Z,98.70
2018-03-04T01:34:41.101Z,98.80
2018-03-04T01:37:09.936Z,98.50
2018-03-04T01:39:37.656Z,98.50
2018-03-04T01:42:06.065Z,98.30
2018-03-04T01:44:34.433Z,98.50
2018-03-04T01:47:02.551Z,98.50
2018-03-04T01:49:30.176Z,98.70
2018-03-04T01:51:58.566Z,98.90
2018-03-04T01:54:26.971Z,98.60
2018-03-04T01:56:54.585Z,98.50
2018-03-04T01:59:22.254Z,99.00
2018-03-04T02:01:49.890Z,99.10
2018-03-04T02:04:17.837Z,99.10
2018-03-04T02:06:45.443Z,99.00
2018-03-04T02:09:14.445Z,99.20
2018-03-04T02:11:42.153Z,99.60
2018-03-04T02:14:10.568Z,99.10
2018-03-04T02:16:38.191Z,99.10
2018-03-04T02:19:05.824Z,99.10
2018-03-04T02:21:33.420Z,99.30
2018-03-04T02:24:01.069Z,99.40
2018-03-04T02:26:28.698Z,99.10
2018-03-04T02:28:56.334Z,99.30
2018-03-04T02:31:24.754Z,99.40
2018-03-04T02:33:52.412Z,99.40
2018-03-04T02:36:20.044Z,99.40
2018-03-04T02:38:47.674Z,99.20
2018-03-04T02:41:15.315Z,99.50
2018-03-04T02:43:42.927Z,99.30
2018-03-04T02:46:10.538Z,99.40
2018-03-04T02:48:38.178Z,99.60
2018-03-04T02:51:06.567Z,99.50
2018-03-04T02:53:34.213Z,99.50
2018-03-04T02:56:01.818Z,99.60
2018-03-04T02:58:29.440Z,99.60
2018-03-04T03:00:57.898Z,99.70
2018-03-04T03:03:25.517Z,99.70
2018-03-04T03:05:53.886Z,99.90
2018-03-04T03:08:22.376Z,99.90
2018-03-04T03:10:50.776Z,99.90
2018-03-04T03:13:18.408Z,99.90
2018-03-04T03:15:46.005Z,99.90
2018-03-04T03:18:14.367Z,99.90
2018-03-04T03:20:41.993Z,99.90
2018-03-04T03:23:09.605Z,99.90
2018-03-04T03:25:38.018Z,99.90
2018-03-04T03:28:06.603Z,99.90
2018-03-04T03:30:34.213Z,99.90
2018-03-04T03:33:01.857Z,99.90
2018-03-04T03:35:29.458Z,99.90
2018-03-04T03:37:57.130Z,99.90
2018-03-04T03:40:24.792Z,99.90
2018-03-04T03:42:52.405Z,99.90
2018-03-04T03:45:20.052Z,99.90
2018-03-04T03:47:48.454Z,99.90
2018-03-04T03:50:16.092Z,99.90
2018-03-04T03:52:44.457Z,99.90
2018-03-04T03:55:12.127Z,99.90
2018-03-04T03:57:39.764Z,99.90
2018-03-04T04:00:07.399Z,99.90
2018-03-04T04:02:35.092Z,99.90
2018-03-04T04:05:02.733Z,99.90
2018-03-04T04:07:30.387Z,99.90
2018-03-04T04:09:58.777Z,99.90
2018-03-04T04:12:27.176Z,99.90
2018-03-04T04:14:55.437Z,99.90
2018-03-04T04:17:24.085Z,99.90
2018-03-04T04:19:52.500Z,99.90
2018-03-04T04:22:20.889Z,99.90
2018-03-04T04:24:49.264Z,99.90
2018-03-04T04:27:16.941Z,99.90
2018-03-04T04:29:45.306Z,99.90
2018-03-04T04:32:13.040Z,99.90
2018-03-04T04:34:40.637Z,99.90
2018-03-04T04:37:08.237Z,99.90
2018-03-04T04:39:35.891Z,99.90
2018-03-04T04:42:04.546Z,99.90
2018-03-04T04:44:32.150Z,99.90
2018-03-04T04:47:01.171Z,99.90
2018-03-04T04:49:28.815Z,99.90
2018-03-04T04:51:57.610Z,99.90
2018-03-04T04:54:25.966Z,99.90
2018-03-04T04:56:53.630Z,99.90
2018-03-04T04:59:21.269Z,99.90
2018-03-04T05:01:48.892Z,99.90
2018-03-04T05:04:17.302Z,99.90
2018-03-04T05:06:44.909Z,99.90
2018-03-04T05:09:12.812Z,99.90
2018-03-04T05:11:41.186Z,99.90
2018-03-04T05:14:09.549Z,99.90
2018-03-04T05:16:37.201Z,99.90
2018-03-04T05:19:04.815Z,99.90
2018-03-04T05:21:33.178Z,99.90
2018-03-04T05:24:01.599Z,99.90
2018-03-04T05:26:29.275Z,99.90
2018-03-04T05:28:56.945Z,99.90
2018-03-04T05:31:24.551Z,99.90
2018-03-04T05:33:52.186Z,99.90
2018-03-04T05:36:19.795Z,99.90
2018-03-04T05:38:47.414Z,99.90
2018-03-04T05:41:15.040Z,99.90
2018-03-04T05:43:43.463Z,99.90
2018-03-04T05:46:11.083Z,99.90
2018-03-04T05:48:39.611Z,99.90
2018-03-04T05:51:07.234Z,99.90
2018-03-04T05:53:35.951Z,99.90
2018-03-04T05:56:03.552Z,99.90
2018-03-04T05:58:31.185Z,99.90
2018-03-04T06:01:00.435Z,99.90
2018-03-04T06:03:28.067Z,99.90
2018-03-04T06:05:55.713Z,99.90
2018-03-04T06:08:23.314Z,99.90
2018-03-04T06:10:51.325Z,99.90
2018-03-04T06:13:19.692Z,99.90
2018-03-04T06:15:48.047Z,99.90
2018-03-04T06:18:16.460Z,99.90
2018-03-04T06:20:44.088Z,99.90
2018-03-04T06:23:11.737Z,99.90
2018-03-04T06:25:39.375Z,99.90
2018-03-04T06:28:07.028Z,99.90
2018-03-04T06:30:34.628Z,99.90
2018-03-04T06:33:03.025Z,99.90
2018-03-04T06:35:30.667Z,99.90
2018-03-04T06:37:59.047Z,99.90
2018-03-04T06:40:27.499Z,99.90
2018-03-04T06:42:55.148Z,99.90
2018-03-04T06:45:22.787Z,99.90
2018-03-04T06:47:50.439Z,99.90
2018-03-04T06:50:18.838Z,99.90
2018-03-04T06:52:46.840Z,99.90
2018-03-04T06:55:14.476Z,99.90
2018-03-04T06:57:42.102Z,99.90
2018-03-04T07:00:09.761Z,99.60
2018-03-04T07:02:37.382Z,99.80
2018-03-04T07:05:04.990Z,99.50
2018-03-04T07:07:32.606Z,99.40
2018-03-04T07:10:00.264Z,99.10
2018-03-04T07:12:27.892Z,99.00
2018-03-04T07:14:55.531Z,98.50
2018-03-04T07:17:23.185Z,98.70
2018-03-04T07:19:50.838Z,98.50
2018-03-04T07:22:18.458Z,98.60
2018-03-04T07:24:46.102Z,98.00
2018-03-04T07:27:14.026Z,98.20
2018-03-04T07:29:42.410Z,97.70
2018-03-04T07:32:10.052Z,97.70
2018-03-04T07:34:37.702Z,98.10
2018-03-04T07:37:05.366Z,97.50
2018-03-04T07:39:32.998Z,96.90
2018-03-04T07:42:00.645Z,96.90
2018-03-04T07:44:28.320Z,96.60
2018-03-04T07:46:55.999Z,95.70
2018-03-04T07:49:24.454Z,95.70
2018-03-04T07:51:53.512Z,95.00
2018-03-04T07:54:21.109Z,94.90
2018-03-04T07:56:49.157Z,94.60
2018-03-04T07:59:19.569Z,93.70
2018-03-04T08:01:47.202Z,93.70
2018-03-04T08:04:15.594Z,93.00
2018-03-04T08:06:43.255Z,93.00
2018-03-04T08:09:11.666Z,92.80
2018-03-04T08:11:39.295Z,92.50
2018-03-04T08:14:07.731Z,91.20
2018-03-04T08:16:35.402Z,91.10
2018-03-04T08:19:03.035Z,91.40
2018-03-04T08:21:30.665Z,90.90
2018-03-04T08:23:58.884Z,91.30
2018-03-04T08:26:38.453Z,90.70
2018-03-04T08:29:06.147Z,90.50
2018-03-04T08:31:33.763Z,89.50
2018-03-04T08:34:01.419Z,89.70
2018-03-04T08:36:29.198Z,89.30
2018-03-04T08:38:56.812Z,89.50
2018-03-04T08:41:24.451Z,89.50
2018-03-04T08:43:53.540Z,87.80
2018-03-04T08:46:21.720Z,87.80
2018-03-04T08:48:50.243Z,87.30
2018-03-04T08:51:17.927Z,87.40
2018-03-04T08:53:46.381Z,87.10
2018-03-04T08:56:14.900Z,87.10
2018-03-04T08:58:42.554Z,88.00
2018-03-04T09:01:10.176Z,84.40
2018-03-04T09:03:38.220Z,85.30
2018-03-04T09:06:06.599Z,83.00
2018-03-04T09:08:35.211Z,81.90
2018-03-04T09:11:03.452Z,81.90
2018-03-04T09:13:31.086Z,83.60
2018-03-04T09:15:58.920Z,82.10
2018-03-04T09:18:27.397Z,80.50
2018-03-04T09:20:55.782Z,80.60
2018-03-04T09:23:24.211Z,78.80
2018-03-04T09:25:52.134Z,78.80
2018-03-04T09:28:20.510Z,78.10
2018-03-04T09:30:48.948Z,74.80
2018-03-04T09:33:16.631Z,74.90
2018-03-04T09:35:44.784Z,74.90
2018-03-04T09:38:12.398Z,75.40
2018-03-04T09:40:40.795Z,75.80
2018-03-04T09:43:09.272Z,74.70
2018-03-04T09:45:37.744Z,73.80
2018-03-04T09:48:06.252Z,73.90
2018-03-04T09:50:34.684Z,73.20
2018-03-04T09:53:02.352Z,73.20
2018-03-04T09:55:30.014Z,71.10
2018-03-04T09:57:58.531Z,71.70
2018-03-04T10:00:26.634Z,71.90
2018-03-04T10:02:55.022Z,72.00
2018-03-04T10:05:23.394Z,71.60
2018-03-04T10:07:51.094Z,71.60
2018-03-04T10:10:18.699Z,72.70
2018-03-04T10:12:46.367Z,71.30
2018-03-04T10:15:15.397Z,69.00
2018-03-04T10:17:43.859Z,69.30
2018-03-04T10:20:11.531Z,69.40
2018-03-04T10:22:39.922Z,68.90
2018-03-04T10:25:07.602Z,67.90
2018-03-04T10:27:35.325Z,66.90
2018-03-04T10:30:02.988Z,67.70
2018-03-04T10:32:30.651Z,63.90
2018-03-04T10:34:58.325Z,62.80
2018-03-04T10:37:25.997Z,65.20
2018-03-04T10:39:53.738Z,61.00
2018-03-04T10:42:21.689Z,58.40
2018-03-04T10:44:50.076Z,60.70
2018-03-04T10:47:17.694Z,60.50
2018-03-04T10:49:45.389Z,58.40
2018-03-04T10:52:13.071Z,60.70
2018-03-04T10:54:41.031Z,58.70
2018-03-04T10:57:09.429Z,59.80
2018-03-04T10:59:37.813Z,61.00
2018-03-04T11:02:23.893Z,59.00
2018-03-04T11:04:51.540Z,59.00
2018-03-04T11:07:19.227Z,58.80
2018-03-04T11:09:46.866Z,58.90
2018-03-04T11:12:14.491Z,60.20
2018-03-04T11:14:42.147Z,55.80
2018-03-04T11:17:09.852Z,57.40
2018-03-04T11:19:37.495Z,54.80
2018-03-04T11:22:05.535Z,57.90
2018-03-04T11:24:33.980Z,55.30
2018-03-04T11:27:02.024Z,55.20
2018-03-04T11:29:29.661Z,53.60
2018-03-04T11:31:58.100Z,56.80
2018-03-04T11:34:25.991Z,57.40
2018-03-04T11:36:53.610Z,55.90
2018-03-04T11:39:21.277Z,56.00
2018-03-04T11:41:49.658Z,53.90
2018-03-04T11:44:17.322Z,53.50
2018-03-04T11:46:44.957Z,55.80
2018-03-04T11:49:12.587Z,54.90
2018-03-04T11:51:40.253Z,55.10
2018-03-04T11:54:07.911Z,52.30
2018-03-04T11:56:35.547Z,52.30
2018-03-04T11:59:03.221Z,52.20
2018-03-04T12:01:30.853Z,52.40
2018-03-04T12:03:58.546Z,49.30
2018-03-04T12:06:26.912Z,48.30
2018-03-04T12:08:54.567Z,48.40
2018-03-04T12:11:22.208Z,47.10
2018-03-04T12:13:49.891Z,49.20
2018-03-04T12:16:17.598Z,49.00
2018-03-04T12:18:45.983Z,49.10
2018-03-04T12:21:14.406Z,49.60
2018-03-04T12:23:42.073Z,49.70
2018-03-04T12:26:09.695Z,46.20
2018-03-04T12:28:38.159Z,49.00
2018-03-04T12:31:05.833Z,49.20
2018-03-04T12:33:35.134Z,48.30
2018-03-04T12:36:05.204Z,51.40
2018-03-04T12:38:32.883Z,50.20
2018-03-04T12:41:00.516Z,52.90
2018-03-04T12:43:28.187Z,52.80
2018-03-04T12:45:55.835Z,51.20
2018-03-04T12:48:24.257Z,50.80
2018-03-04T12:50:51.934Z,50.90
2018-03-04T12:53:19.568Z,51.40
2018-03-04T12:55:47.185Z,51.90
2018-03-04T12:58:14.823Z,51.40
2018-03-04T13:00:43.270Z,54.20
2018-03-04T13:03:11.962Z,53.10
2018-03-04T13:05:40.348Z,54.30
2018-03-04T13:08:08.735Z,54.60
2018-03-04T13:10:36.431Z,54.80
2018-03-04T13:13:04.048Z,56.00
2018-03-04T13:15:31.715Z,58.20
2018-03-04T13:18:00.120Z,57.80
2018-03-04T13:20:28.215Z,58.00
2018-03-04T13:22:55.827Z,57.60
2018-03-04T13:25:23.542Z,58.90
2018-03-04T13:27:51.165Z,58.40
2018-03-04T13:30:18.859Z,59.80
2018-03-04T13:32:47.237Z,59.50
2018-03-04T13:35:14.868Z,59.30
2018-03-04T13:37:42.898Z,60.50
2018-03-04T13:40:11.089Z,61.10
2018-03-04T13:42:39.072Z,61.30
2018-03-04T13:45:06.702Z,60.30
2018-03-04T13:47:34.380Z,61.50
2018-03-04T13:50:02.047Z,62.80
2018-03-04T13:52:30.428Z,60.70
2018-03-04T13:54:58.488Z,60.60
2018-03-04T13:57:26.869Z,60.90
2018-03-04T13:59:55.286Z,60.10
2018-03-04T14:02:23.074Z,59.80
2018-03-04T14:04:50.734Z,59.10
2018-03-04T14:07:18.335Z,59.70
2018-03-04T14:09:46.005Z,59.00
2018-03-04T14:12:13.643Z,60.90
2018-03-04T14:14:41.298Z,60.40
2018-03-04T14:17:08.976Z,60.40
2018-03-04T14:19:36.579Z,61.20
2018-03-04T14:22:04.242Z,61.10
2018-03-04T14:24:31.937Z,60.20
2018-03-04T14:26:59.592Z,60.30
2018-03-04T14:29:28.013Z,61.00
2018-03-04T14:31:55.740Z,60.90
2018-03-04T14:34:23.410Z,60.60
2018-03-04T14:36:51.858Z,61.50
2018-03-04T14:39:20.149Z,61.10
2018-03-04T14:41:47.754Z,60.70
2018-03-04T14:44:16.212Z,59.20
2018-03-04T14:46:43.879Z,59.00
2018-03-04T14:49:12.278Z,60.60
2018-03-04T14:51:40.076Z,60.60
2018-03-04T14:54:07.689Z,59.50
2018-03-04T14:56:36.113Z,61.30
2018-03-04T14:59:03.735Z,61.10
2018-03-04T15:01:31.641Z,61.00
2018-03-04T15:03:59.266Z,60.10
2018-03-04T15:06:26.890Z,60.20
2018-03-04T15:08:54.535Z,62.20
2018-03-04T15:11:22.158Z,62.90
2018-03-04T15:13:51.845Z,62.50
2018-03-04T15:16:20.308Z,59.80
2018-03-04T15:18:47.927Z,59.80
2018-03-04T15:21:15.595Z,62.10
2018-03-04T15:23:43.227Z,61.10
2018-03-04T15:26:10.854Z,60.80
2018-03-04T15:28:38.881Z,60.40
2018-03-04T15:31:06.494Z,61.00
2018-03-04T15:33:34.106Z,61.80
2018-03-04T15:36:01.802Z,60.80
2018-03-04T15:38:30.255Z,60.10
2018-03-04T15:40:57.912Z,60.30
2018-03-04T15:43:25.568Z,60.00
2018-03-04T15:45:53.256Z,60.90
2018-03-04T15:48:21.739Z,59.00
2018-03-04T15:50:50.162Z,61.40
2018-03-04T15:53:17.808Z,61.60
2018-03-04T15:55:45.472Z,62.70
2018-03-04T15:58:13.146Z,62.00
2018-03-04T16:00:40.781Z,60.70
2018-03-04T16:03:08.395Z,60.70
2018-03-04T16:05:36.052Z,60.70
2018-03-04T16:08:03.926Z,61.80
2018-03-04T16:10:33.059Z,61.30
2018-03-04T16:13:01.148Z,61.30
2018-03-04T16:15:28.825Z,62.40
2018-03-04T16:17:58.011Z,61.70
2018-03-04T16:20:25.676Z,62.10
2018-03-04T16:22:53.334Z,62.30
2018-03-04T16:25:20.966Z,63.60
2018-03-04T16:27:48.651Z,64.50
2018-03-04T16:30:16.290Z,64.90
2018-03-04T16:32:45.551Z,64.20
2018-03-04T16:35:13.213Z,63.00
2018-03-04T16:37:40.876Z,62.80
2018-03-04T16:40:09.303Z,64.60
2018-03-04T16:42:37.072Z,64.50
2018-03-04T16:45:04.735Z,64.80
2018-03-04T16:47:32.398Z,64.00
2018-03-04T16:50:00.111Z,64.40
2018-03-04T16:52:28.232Z,65.50
2018-03-04T16:54:55.877Z,65.60
2018-03-04T16:57:24.295Z,65.70
2018-03-04T16:59:51.989Z,65.70
2018-03-04T17:02:19.683Z,66.00
2018-03-04T17:04:48.130Z,67.80
2018-03-04T17:07:15.823Z,67.00
2018-03-04T17:09:43.460Z,67.60
2018-03-04T17:12:11.094Z,68.30
2018-03-04T17:14:39.800Z,69.70
2018-03-04T17:17:07.496Z,68.80
2018-03-04T17:19:35.127Z,70.60
2018-03-04T17:22:02.788Z,69.30
2018-03-04T17:24:30.705Z,69.10
2018-03-04T17:26:58.341Z,69.50
2018-03-04T17:29:26.012Z,70.50
2018-03-04T17:31:53.686Z,69.70
2018-03-04T17:34:21.329Z,69.40
2018-03-04T17:36:48.958Z,69.70
2018-03-04T17:39:16.649Z,70.50
2018-03-04T17:41:45.070Z,69.20
2018-03-04T17:44:12.704Z,69.20
2018-03-04T17:46:40.375Z,70.10
2018-03-04T17:49:07.989Z,69.70
2018-03-04T17:51:35.690Z,69.50
2018-03-04T17:54:04.128Z,69.10
2018-03-04T17:56:31.802Z,69.20
2018-03-04T17:58:59.459Z,69.50
2018-03-04T18:01:27.136Z,69.70
2018-03-04T18:03:54.742Z,70.30
2018-03-04T18:06:23.153Z,69.60
2018-03-04T18:08:50.815Z,69.60
2018-03-04T18:11:18.789Z,70.20
2018-03-04T18:13:46.426Z,70.10
2018-03-04T18:16:14.858Z,69.60
2018-03-04T18:18:42.500Z,69.50
2018-03-04T18:21:10.139Z,70.40
2018-03-04T18:23:37.794Z,71.10
2018-03-04T18:26:05.413Z,70.70
2018-03-04T18:28:33.098Z,70.90
2018-03-04T18:31:00.755Z,71.10
2018-03-04T18:33:28.389Z,71.10
2018-03-04T18:35:56.810Z,70.80
2018-03-04T18:38:24.457Z,70.80
2018-03-04T18:40:52.092Z,71.50
2018-03-04T18:43:19.717Z,70.60
2018-03-04T18:45:47.364Z,72.00
2018-03-04T18:48:14.995Z,72.40
2018-03-04T18:50:43.462Z,73.00
2018-03-04T18:53:11.178Z,73.00
2018-03-04T18:55:38.851Z,73.70
2018-03-04T18:58:06.851Z,73.80
2018-03-04T19:00:34.492Z,73.80
2018-03-04T19:03:02.123Z,74.00
2018-03-04T19:05:30.585Z,74.30
2018-03-04T19:07:58.226Z,74.30
2018-03-04T19:10:25.903Z,74.40
2018-03-04T19:12:53.825Z,74.60
2018-03-04T19:15:22.220Z,75.20
2018-03-04T19:17:49.915Z,75.10
2018-03-04T19:20:17.691Z,74.80
2018-03-04T19:22:45.385Z,74.20
2018-03-04T19:25:13.071Z,75.30
2018-03-04T19:27:41.481Z,75.40
2018-03-04T19:30:09.210Z,75.30
2018-03-04T19:32:36.896Z,74.60
2018-03-04T19:35:05.635Z,75.20
2018-03-04T19:37:33.403Z,75.20
2018-03-04T19:40:01.014Z,75.60
2018-03-04T19:42:29.459Z,75.50
2018-03-04T19:44:57.138Z,75.30
2018-03-04T19:47:24.887Z,75.90
2018-03-04T19:49:52.573Z,76.00
2018-03-04T19:52:20.237Z,76.10
2018-03-04T19:54:47.882Z,76.70
2018-03-04T19:57:15.608Z,77.20
2018-03-04T19:59:44.026Z,77.70
2018-03-04T20:02:12.787Z,77.80
2018-03-04T20:04:40.577Z,77.80
2018-03-04T20:07:09.022Z,77.30
2018-03-04T20:09:36.896Z,77.30
2018-03-04T20:12:05.451Z,77.90
2018-03-04T20:14:33.280Z,77.50
2018-03-04T20:17:01.045Z,77.80
2018-03-04T20:19:31.099Z,77.10
2018-03-04T20:22:00.623Z,77.20
2018-03-04T20:24:28.279Z,77.40
2018-03-04T20:26:57.003Z,78.40
2018-03-04T20:29:24.637Z,78.40
2018-03-04T20:31:52.348Z,78.50
2018-03-04T20:34:19.988Z,78.60
2018-03-04T20:36:48.436Z,78.70
2018-03-04T20:39:16.072Z,78.80
2018-03-04T20:41:43.765Z,78.70
2018-03-04T20:44:12.338Z,79.60
2018-03-04T20:46:40.005Z,79.60
2018-03-04T20:49:08.386Z,78.90
2018-03-04T20:51:35.990Z,79.00
2018-03-04T20:54:04.773Z,78.80
2018-03-04T20:56:33.155Z,79.10
2018-03-04T20:59:01.549Z,78.90
2018-03-04T21:01:30.143Z,79.10
2018-03-04T21:03:57.761Z,79.10
2018-03-04T21:06:26.180Z,79.20
2018-03-04T21:08:55.188Z,79.10
2018-03-04T21:11:23.651Z,79.40
2018-03-04T21:13:51.630Z,79.40
2018-03-04T21:16:19.484Z,79.20
2018-03-04T21:18:47.163Z,79.60
2018-03-04T21:21:15.606Z,79.70
2018-03-04T21:23:43.299Z,79.50
2018-03-04T21:26:11.717Z,79.60
2018-03-04T21:28:40.217Z,79.90
2018-03-04T21:31:07.928Z,79.80
2018-03-04T21:33:35.540Z,79.90
2018-03-04T21:36:03.592Z,79.50
2018-03-04T21:38:31.853Z,80.30
2018-03-04T21:40:59.500Z,80.20
2018-03-04T21:43:27.145Z,80.00
2018-03-04T21:45:54.754Z,80.00
2018-03-04T21:48:22.400Z,80.10
2018-03-04T21:50:50.033Z,80.70
2018-03-04T21:53:18.461Z,81.00
2018-03-04T21:55:46.074Z,80.90
2018-03-04T21:58:15.115Z,81.10
2018-03-04T22:00:42.784Z,81.10
2018-03-04T22:03:10.404Z,81.50
2018-03-04T22:05:38.861Z,81.90
2018-03-04T22:08:06.490Z,81.90
2018-03-04T22:10:34.142Z,81.60
2018-03-04T22:13:01.821Z,81.50
2018-03-04T22:15:29.704Z,81.30
2018-03-04T22:17:58.282Z,81.70
2018-03-04T22:20:25.900Z,82.00
2018-03-04T22:22:53.534Z,83.40
2018-03-04T22:25:21.162Z,82.70
2018-03-04T22:27:48.804Z,83.00
2018-03-04T22:30:16.457Z,82.60
2018-03-04T22:32:44.898Z,82.80
2018-03-04T22:35:12.581Z,83.40
2018-03-04T22:37:40.530Z,83.60
2018-03-04T22:40:08.290Z,83.80
2018-03-04T22:42:36.677Z,83.80
2018-03-04T22:45:04.332Z,83.90
2018-03-04T22:47:32.753Z,83.80
2018-03-04T22:50:00.396Z,83.80
2018-03-04T22:52:28.013Z,84.00
2018-03-04T22:54:55.681Z,84.00
2018-03-04T22:57:23.370Z,84.10
2018-03-04T22:59:51.905Z,84.20
2018-03-04T23:02:19.546Z,84.20
2018-03-04T23:04:47.595Z,84.40
2018-03-04T23:07:15.278Z,84.50
2018-03-04T23:09:42.943Z,84.50
2018-03-04T23:12:11.353Z,85.20
2018-03-04T23:14:38.985Z,85.00
2018-03-04T23:17:07.472Z,85.60
2018-03-04T23:19:35.055Z,85.50
2018-03-04T23:22:02.719Z,85.70
2018-03-04T23:24:30.341Z,85.30
2018-03-04T23:26:57.994Z,85.20
2018-03-04T23:29:25.648Z,85.30
2018-03-04T23:31:53.315Z,85.70
2018-03-04T23:34:20.932Z,85.50
2018-03-04T23:36:49.974Z,85.40
2018-03-04T23:39:18.660Z,85.70
2018-03-04T23:41:46.287Z,85.70
2018-03-04T23:44:15.127Z,86.00
2018-03-04T23:46:42.796Z,86.00
2018-03-04T23:49:10.791Z,85.80
2018-03-04T23:51:38.417Z,85.50
2018-03-04T23:54:06.045Z,86.10
2018-03-04T23:56:33.687Z,86.90
2018-03-04T23:59:01.322Z,86.50
